sensor_id;sensor_type;location;lat;lon;timestamp;P1;durP1;ratioP1;P2;durP2;ratioP2
58362;SDS011;54977;51.510;7.522;2022-11-04T00:02:04;2.20;;;1.08;;
58362;SDS011;54977;51.510;7.522;2022-11-04T00:07:07;1.70;;;0.80;;
58362;SDS011;54977;51.510;7.522;2022-11-04T00:12:23;3.33;;;1.00;;
58362;SDS011;54977;51.510;7.522;2022-11-04T00:22:28;1.38;;;0.50;;
58362;SDS011;54977;51.510;7.522;2022-11-04T00:27:47;1.52;;;0.50;;
58362;SDS011;54977;51.510;7.522;2022-11-04T00:33:07;1.75;;;0.50;;
58362;SDS011;54977;51.510;7.522;2022-11-04T00:38:28;1.70;;;0.75;;
58362;SDS011;54977;51.510;7.522;2022-11-04T00:43:31;2.35;;;0.73;;
58362;SDS011;54977;51.510;7.522;2022-11-04T00:53:35;1.40;;;0.40;;
58362;SDS011;54977;51.510;7.522;2022-11-04T00:58:37;1.50;;;0.70;;
58362;SDS011;54977;51.510;7.522;2022-11-04T01:03:39;1.17;;;0.60;;
58362;SDS011;54977;51.510;7.522;2022-11-04T01:13:45;1.55;;;0.50;;
58362;SDS011;54977;51.510;7.522;2022-11-04T01:18:50;1.70;;;0.93;;
58362;SDS011;54977;51.510;7.522;2022-11-04T01:23:53;1.67;;;0.68;;
58362;SDS011;54977;51.510;7.522;2022-11-04T01:28:56;1.98;;;0.57;;
58362;SDS011;54977;51.510;7.522;2022-11-04T01:33:59;2.80;;;0.68;;
58362;SDS011;54977;51.510;7.522;2022-11-04T01:39:02;1.75;;;0.70;;
58362;SDS011;54977;51.510;7.522;2022-11-04T01:49:39;2.65;;;1.17;;
58362;SDS011;54977;51.510;7.522;2022-11-04T01:54:44;2.00;;;1.17;;
58362;SDS011;54977;51.510;7.522;2022-11-04T01:59:47;1.80;;;0.90;;
58362;SDS011;54977;51.510;7.522;2022-11-04T02:04:49;2.05;;;1.25;;
58362;SDS011;54977;51.510;7.522;2022-11-04T02:09:53;2.63;;;1.02;;
58362;SDS011;54977;51.510;7.522;2022-11-04T02:14:55;2.83;;;1.52;;
58362;SDS011;54977;51.510;7.522;2022-11-04T02:31:19;3.55;;;1.90;;
58362;SDS011;54977;51.510;7.522;2022-11-04T02:36:26;2.58;;;1.55;;
58362;SDS011;54977;51.510;7.522;2022-11-04T02:41:37;3.30;;;1.75;;
58362;SDS011;54977;51.510;7.522;2022-11-04T02:46:45;4.05;;;1.40;;
58362;SDS011;54977;51.510;7.522;2022-11-04T02:51:50;4.40;;;1.60;;
58362;SDS011;54977;51.510;7.522;2022-11-04T02:56:56;3.70;;;1.40;;
58362;SDS011;54977;51.510;7.522;2022-11-04T03:02:02;7.82;;;2.30;;
58362;SDS011;54977;51.510;7.522;2022-11-04T03:07:11;3.67;;;1.45;;
58362;SDS011;54977;51.510;7.522;2022-11-04T03:12:19;3.00;;;1.27;;
58362;SDS011;54977;51.510;7.522;2022-11-04T03:17:28;2.17;;;1.33;;
58362;SDS011;54977;51.510;7.522;2022-11-04T03:22:35;3.33;;;1.55;;
58362;SDS011;54977;51.510;7.522;2022-11-04T03:27:40;3.45;;;1.50;;
58362;SDS011;54977;51.510;7.522;2022-11-04T03:32:50;2.28;;;1.38;;
58362;SDS011;54977;51.510;7.522;2022-11-04T03:37:58;5.13;;;1.48;;
58362;SDS011;54977;51.510;7.522;2022-11-04T03:43:02;2.97;;;1.30;;
58362;SDS011;54977;51.510;7.522;2022-11-04T03:48:10;3.70;;;1.40;;
58362;SDS011;54977;51.510;7.522;2022-11-04T03:53:13;6.75;;;0.90;;
58362;SDS011;54977;51.510;7.522;2022-11-04T03:58:22;5.43;;;1.65;;
58362;SDS011;54977;51.510;7.522;2022-11-04T04:03:30;2.03;;;0.90;;
58362;SDS011;54977;51.510;7.522;2022-11-04T04:08:36;2.78;;;1.00;;
58362;SDS011;54977;51.510;7.522;2022-11-04T04:13:43;2.10;;;1.00;;
58362;SDS011;54977;51.510;7.522;2022-11-04T04:18:52;4.65;;;1.20;;
58362;SDS011;54977;51.510;7.522;2022-11-04T04:23:58;4.65;;;1.00;;
58362;SDS011;54977;51.510;7.522;2022-11-04T04:29:19;2.78;;;0.95;;
58362;SDS011;54977;51.510;7.522;2022-11-04T04:34:24;5.60;;;0.95;;
58362;SDS011;54977;51.510;7.522;2022-11-04T04:39:31;2.10;;;0.70;;
58362;SDS011;54977;51.510;7.522;2022-11-04T04:44:54;5.38;;;0.98;;
58362;SDS011;54977;51.510;7.522;2022-11-04T04:50:01;2.58;;;0.80;;
58362;SDS011;54977;51.510;7.522;2022-11-04T04:55:03;7.00;;;0.98;;
58362;SDS011;54977;51.510;7.522;2022-11-04T05:00:06;1.65;;;0.68;;
58362;SDS011;54977;51.510;7.522;2022-11-04T05:05:12;6.38;;;0.95;;
58362;SDS011;54977;51.510;7.522;2022-11-04T05:10:14;4.03;;;0.80;;
58362;SDS011;54977;51.510;7.522;2022-11-04T05:15:17;4.75;;;0.98;;
58362;SDS011;54977;51.510;7.522;2022-11-04T05:20:20;2.42;;;0.60;;
58362;SDS011;54977;51.510;7.522;2022-11-04T05:25:22;4.03;;;0.90;;
58362;SDS011;54977;51.510;7.522;2022-11-04T05:30:24;8.82;;;0.98;;
58362;SDS011;54977;51.510;7.522;2022-11-04T05:35:27;2.42;;;0.88;;
58362;SDS011;54977;51.510;7.522;2022-11-04T05:40:29;3.42;;;0.60;;
58362;SDS011;54977;51.510;7.522;2022-11-04T05:45:31;9.70;;;0.70;;
58362;SDS011;54977;51.510;7.522;2022-11-04T05:50:34;8.18;;;0.85;;
58362;SDS011;54977;51.510;7.522;2022-11-04T05:55:37;2.72;;;0.80;;
58362;SDS011;54977;51.510;7.522;2022-11-04T06:00:39;6.43;;;1.10;;
58362;SDS011;54977;51.510;7.522;2022-11-04T06:05:43;2.58;;;0.63;;
58362;SDS011;54977;51.510;7.522;2022-11-04T06:10:45;2.63;;;0.70;;
58362;SDS011;54977;51.510;7.522;2022-11-04T06:15:47;3.22;;;1.10;;
58362;SDS011;54977;51.510;7.522;2022-11-04T06:20:50;2.95;;;0.63;;
58362;SDS011;54977;51.510;7.522;2022-11-04T06:26:07;2.30;;;0.70;;
58362;SDS011;54977;51.510;7.522;2022-11-04T06:31:10;5.75;;;0.98;;
58362;SDS011;54977;51.510;7.522;2022-11-04T06:36:15;3.38;;;0.90;;
58362;SDS011;54977;51.510;7.522;2022-11-04T06:41:17;5.43;;;0.80;;
58362;SDS011;54977;51.510;7.522;2022-11-04T06:51:26;4.25;;;1.30;;
58362;SDS011;54977;51.510;7.522;2022-11-04T06:56:28;4.65;;;0.70;;
58362;SDS011;54977;51.510;7.522;2022-11-04T07:01:31;2.42;;;0.82;;
58362;SDS011;54977;51.510;7.522;2022-11-04T07:06:36;6.82;;;0.80;;
58362;SDS011;54977;51.510;7.522;2022-11-04T07:11:38;6.75;;;0.70;;
58362;SDS011;54977;51.510;7.522;2022-11-04T07:21:43;5.47;;;0.77;;
58362;SDS011;54977;51.510;7.522;2022-11-04T07:26:44;3.63;;;0.77;;
58362;SDS011;54977;51.510;7.522;2022-11-04T07:31:46;4.32;;;0.98;;
58362;SDS011;54977;51.510;7.522;2022-11-04T07:36:49;2.60;;;0.77;;
58362;SDS011;54977;51.510;7.522;2022-11-04T07:41:51;4.45;;;1.10;;
58362;SDS011;54977;51.510;7.522;2022-11-04T07:46:53;4.57;;;1.63;;
58362;SDS011;54977;51.510;7.522;2022-11-04T07:51:57;4.35;;;1.17;;
58362;SDS011;54977;51.510;7.522;2022-11-04T07:56:58;4.22;;;1.10;;
58362;SDS011;54977;51.510;7.522;2022-11-04T08:07:06;4.30;;;1.10;;
58362;SDS011;54977;51.510;7.522;2022-11-04T08:12:08;4.25;;;0.90;;
58362;SDS011;54977;51.510;7.522;2022-11-04T08:17:10;4.65;;;1.42;;
58362;SDS011;54977;51.510;7.522;2022-11-04T08:22:13;2.17;;;0.90;;
58362;SDS011;54977;51.510;7.522;2022-11-04T08:27:15;1.90;;;0.80;;
58362;SDS011;54977;51.510;7.522;2022-11-04T08:32:17;2.92;;;1.13;;
58362;SDS011;54977;51.510;7.522;2022-11-04T08:37:20;4.70;;;0.90;;
58362;SDS011;54977;51.510;7.522;2022-11-04T08:42:22;5.40;;;0.80;;
58362;SDS011;54977;51.510;7.522;2022-11-04T08:47:25;2.80;;;0.70;;
58362;SDS011;54977;51.510;7.522;2022-11-04T08:52:28;2.50;;;0.52;;
58362;SDS011;54977;51.510;7.522;2022-11-04T08:57:30;3.72;;;0.60;;
58362;SDS011;54977;51.510;7.522;2022-11-04T09:02:32;2.65;;;0.50;;
58362;SDS011;54977;51.510;7.522;2022-11-04T09:07:36;2.30;;;0.63;;
58362;SDS011;54977;51.510;7.522;2022-11-04T09:12:38;3.10;;;1.00;;
58362;SDS011;54977;51.510;7.522;2022-11-04T09:17:40;1.77;;;0.30;;
58362;SDS011;54977;51.510;7.522;2022-11-04T09:22:44;4.45;;;0.65;;
58362;SDS011;54977;51.510;7.522;2022-11-04T09:27:49;3.65;;;0.70;;
58362;SDS011;54977;51.510;7.522;2022-11-04T09:32:51;4.10;;;1.02;;
58362;SDS011;54977;51.510;7.522;2022-11-04T09:37:54;3.13;;;0.75;;
58362;SDS011;54977;51.510;7.522;2022-11-04T09:43:05;3.50;;;0.55;;
58362;SDS011;54977;51.510;7.522;2022-11-04T09:48:21;3.90;;;0.80;;
58362;SDS011;54977;51.510;7.522;2022-11-04T09:53:28;2.63;;;0.68;;
58362;SDS011;54977;51.510;7.522;2022-11-04T09:58:37;4.32;;;0.60;;
58362;SDS011;54977;51.510;7.522;2022-11-04T10:03:42;2.55;;;0.60;;
58362;SDS011;54977;51.510;7.522;2022-11-04T10:08:58;4.68;;;0.63;;
58362;SDS011;54977;51.510;7.522;2022-11-04T10:14:30;4.95;;;1.10;;
58362;SDS011;54977;51.510;7.522;2022-11-04T10:20:02;6.68;;;0.70;;
58362;SDS011;54977;51.510;7.522;2022-11-04T10:25:20;4.05;;;0.40;;
58362;SDS011;54977;51.510;7.522;2022-11-04T10:30:24;4.03;;;1.08;;
58362;SDS011;54977;51.510;7.522;2022-11-04T10:35:30;4.45;;;0.90;;
58362;SDS011;54977;51.510;7.522;2022-11-04T10:40:36;1.73;;;0.70;;
58362;SDS011;54977;51.510;7.522;2022-11-04T10:45:42;2.40;;;0.50;;
58362;SDS011;54977;51.510;7.522;2022-11-04T10:50:51;3.08;;;0.60;;
58362;SDS011;54977;51.510;7.522;2022-11-04T10:55:58;3.90;;;0.60;;
58362;SDS011;54977;51.510;7.522;2022-11-04T11:06:24;1.98;;;0.60;;
58362;SDS011;54977;51.510;7.522;2022-11-04T11:11:35;3.67;;;0.68;;
58362;SDS011;54977;51.510;7.522;2022-11-04T11:16:39;2.47;;;0.50;;
58362;SDS011;54977;51.510;7.522;2022-11-04T11:21:42;2.10;;;0.82;;
58362;SDS011;54977;51.510;7.522;2022-11-04T11:26:49;2.35;;;0.70;;
58362;SDS011;54977;51.510;7.522;2022-11-04T11:31:53;2.65;;;0.30;;
58362;SDS011;54977;51.510;7.522;2022-11-04T11:36:57;3.58;;;0.68;;
58362;SDS011;54977;51.510;7.522;2022-11-04T11:42:03;2.90;;;0.50;;
58362;SDS011;54977;51.510;7.522;2022-11-04T11:47:12;2.55;;;0.60;;
58362;SDS011;54977;51.510;7.522;2022-11-04T11:52:26;4.72;;;1.27;;
58362;SDS011;54977;51.510;7.522;2022-11-04T11:57:37;4.75;;;0.80;;
58362;SDS011;54977;51.510;7.522;2022-11-04T12:02:46;5.32;;;0.95;;
58362;SDS011;54977;51.510;7.522;2022-11-04T12:07:52;3.05;;;0.80;;
58362;SDS011;54977;51.510;7.522;2022-11-04T12:13:06;1.35;;;0.57;;
58362;SDS011;54977;51.510;7.522;2022-11-04T12:18:30;2.15;;;0.57;;
58362;SDS011;54977;51.510;7.522;2022-11-04T12:23:45;1.63;;;0.47;;
58362;SDS011;54977;51.510;7.522;2022-11-04T12:28:56;2.63;;;0.60;;
58362;SDS011;54977;51.510;7.522;2022-11-04T12:34:10;2.33;;;0.50;;
58362;SDS011;54977;51.510;7.522;2022-11-04T12:39:20;6.68;;;1.08;;
58362;SDS011;54977;51.510;7.522;2022-11-04T12:44:32;1.88;;;0.50;;
58362;SDS011;54977;51.510;7.522;2022-11-04T12:50:00;4.30;;;0.60;;
58362;SDS011;54977;51.510;7.522;2022-11-04T13:00:25;3.05;;;0.88;;
58362;SDS011;54977;51.510;7.522;2022-11-04T13:05:32;5.60;;;0.68;;
58362;SDS011;54977;51.510;7.522;2022-11-04T13:10:41;4.85;;;1.10;;
58362;SDS011;54977;51.510;7.522;2022-11-04T13:15:50;5.05;;;0.70;;
58362;SDS011;54977;51.510;7.522;2022-11-04T13:20:56;2.95;;;0.68;;
58362;SDS011;54977;51.510;7.522;2022-11-04T13:26:02;4.10;;;0.60;;
58362;SDS011;54977;51.510;7.522;2022-11-04T13:31:13;3.53;;;0.98;;
58362;SDS011;54977;51.510;7.522;2022-11-04T13:36:26;3.13;;;0.57;;
58362;SDS011;54977;51.510;7.522;2022-11-04T13:41:38;2.65;;;0.70;;
58362;SDS011;54977;51.510;7.522;2022-11-04T13:47:02;3.90;;;1.08;;
58362;SDS011;54977;51.510;7.522;2022-11-04T13:52:07;5.00;;;2.25;;
58362;SDS011;54977;51.510;7.522;2022-11-04T13:57:11;6.90;;;2.90;;
58362;SDS011;54977;51.510;7.522;2022-11-04T14:02:31;4.88;;;2.13;;
58362;SDS011;54977;51.510;7.522;2022-11-04T14:18:46;7.15;;;2.72;;
58362;SDS011;54977;51.510;7.522;2022-11-04T14:23:49;6.18;;;2.42;;
58362;SDS011;54977;51.510;7.522;2022-11-04T14:28:59;6.25;;;2.10;;
58362;SDS011;54977;51.510;7.522;2022-11-04T14:34:04;6.80;;;2.67;;
58362;SDS011;54977;51.510;7.522;2022-11-04T14:39:19;6.40;;;2.38;;
58362;SDS011;54977;51.510;7.522;2022-11-04T14:44:27;7.93;;;2.60;;
58362;SDS011;54977;51.510;7.522;2022-11-04T14:49:36;9.07;;;3.83;;
58362;SDS011;54977;51.510;7.522;2022-11-04T14:54:40;9.80;;;2.88;;
58362;SDS011;54977;51.510;7.522;2022-11-04T14:59:42;10.30;;;3.30;;
58362;SDS011;54977;51.510;7.522;2022-11-04T15:04:50;6.50;;;2.65;;
58362;SDS011;54977;51.510;7.522;2022-11-04T15:09:56;7.28;;;2.30;;
58362;SDS011;54977;51.510;7.522;2022-11-04T15:14:58;12.57;;;2.65;;
58362;SDS011;54977;51.510;7.522;2022-11-04T15:20:01;6.72;;;2.40;;
58362;SDS011;54977;51.510;7.522;2022-11-04T15:25:04;5.40;;;3.00;;
58362;SDS011;54977;51.510;7.522;2022-11-04T15:30:17;5.75;;;2.78;;
58362;SDS011;54977;51.510;7.522;2022-11-04T15:35:23;8.10;;;2.80;;
58362;SDS011;54977;51.510;7.522;2022-11-04T15:40:27;5.75;;;2.83;;
58362;SDS011;54977;51.510;7.522;2022-11-04T15:45:35;6.10;;;2.47;;
58362;SDS011;54977;51.510;7.522;2022-11-04T15:50:39;6.93;;;2.95;;
58362;SDS011;54977;51.510;7.522;2022-11-04T15:55:42;9.77;;;2.38;;
58362;SDS011;54977;51.510;7.522;2022-11-04T16:00:53;5.90;;;2.97;;
58362;SDS011;54977;51.510;7.522;2022-11-04T16:06:01;6.03;;;2.63;;
58362;SDS011;54977;51.510;7.522;2022-11-04T16:11:08;10.57;;;3.33;;
58362;SDS011;54977;51.510;7.522;2022-11-04T16:16:19;10.95;;;3.90;;
58362;SDS011;54977;51.510;7.522;2022-11-04T16:21:25;7.88;;;3.70;;
58362;SDS011;54977;51.510;7.522;2022-11-04T16:26:30;10.63;;;3.67;;
58362;SDS011;54977;51.510;7.522;2022-11-04T16:31:37;9.98;;;3.60;;
58362;SDS011;54977;51.510;7.522;2022-11-04T16:36:41;9.75;;;3.45;;
58362;SDS011;54977;51.510;7.522;2022-11-04T16:41:42;8.30;;;3.42;;
58362;SDS011;54977;51.510;7.522;2022-11-04T16:46:44;7.55;;;3.95;;
58362;SDS011;54977;51.510;7.522;2022-11-04T16:51:48;10.10;;;4.15;;
58362;SDS011;54977;51.510;7.522;2022-11-04T16:56:55;9.02;;;3.85;;
58362;SDS011;54977;51.510;7.522;2022-11-04T17:01:59;9.27;;;4.70;;
58362;SDS011;54977;51.510;7.522;2022-11-04T17:07:03;12.93;;;4.07;;
58362;SDS011;54977;51.510;7.522;2022-11-04T17:12:05;8.57;;;4.55;;
58362;SDS011;54977;51.510;7.522;2022-11-04T17:17:08;6.95;;;3.75;;
58362;SDS011;54977;51.510;7.522;2022-11-04T17:22:12;13.13;;;4.18;;
58362;SDS011;54977;51.510;7.522;2022-11-04T17:27:14;9.57;;;4.43;;
58362;SDS011;54977;51.510;7.522;2022-11-04T17:37:19;11.57;;;5.03;;
58362;SDS011;54977;51.510;7.522;2022-11-04T17:42:21;7.57;;;3.92;;
58362;SDS011;54977;51.510;7.522;2022-11-04T17:47:40;9.25;;;4.38;;
58362;SDS011;54977;51.510;7.522;2022-11-04T17:52:43;10.00;;;4.07;;
58362;SDS011;54977;51.510;7.522;2022-11-04T17:57:46;11.57;;;4.40;;
58362;SDS011;54977;51.510;7.522;2022-11-04T18:02:48;7.07;;;3.83;;
58362;SDS011;54977;51.510;7.522;2022-11-04T18:07:51;9.20;;;4.10;;
58362;SDS011;54977;51.510;7.522;2022-11-04T18:12:55;8.07;;;3.88;;
58362;SDS011;54977;51.510;7.522;2022-11-04T18:23:00;12.35;;;5.32;;
58362;SDS011;54977;51.510;7.522;2022-11-04T18:28:02;11.18;;;5.15;;
58362;SDS011;54977;51.510;7.522;2022-11-04T18:33:04;12.35;;;5.13;;
58362;SDS011;54977;51.510;7.522;2022-11-04T18:38:07;13.65;;;4.82;;
58362;SDS011;54977;51.510;7.522;2022-11-04T18:43:09;10.15;;;5.25;;
58362;SDS011;54977;51.510;7.522;2022-11-04T18:53:14;11.35;;;5.28;;
58362;SDS011;54977;51.510;7.522;2022-11-04T18:58:17;14.80;;;5.20;;
58362;SDS011;54977;51.510;7.522;2022-11-04T19:08:23;16.27;;;7.72;;
58362;SDS011;54977;51.510;7.522;2022-11-04T19:13:25;12.15;;;6.22;;
58362;SDS011;54977;51.510;7.522;2022-11-04T19:18:27;18.25;;;7.97;;
58362;SDS011;54977;51.510;7.522;2022-11-04T19:33:36;17.50;;;6.93;;
58362;SDS011;54977;51.510;7.522;2022-11-04T19:38:39;18.38;;;7.53;;
58362;SDS011;54977;51.510;7.522;2022-11-04T19:43:42;23.35;;;8.43;;
58362;SDS011;54977;51.510;7.522;2022-11-04T19:53:47;18.65;;;8.05;;
58362;SDS011;54977;51.510;7.522;2022-11-04T19:58:49;22.48;;;8.20;;
58362;SDS011;54977;51.510;7.522;2022-11-04T20:08:54;25.35;;;10.68;;
58362;SDS011;54977;51.510;7.522;2022-11-04T20:13:56;34.58;;;16.08;;
58362;SDS011;54977;51.510;7.522;2022-11-04T20:18:58;40.63;;;17.58;;
58362;SDS011;54977;51.510;7.522;2022-11-04T20:24:05;31.77;;;14.43;;
58362;SDS011;54977;51.510;7.522;2022-11-04T20:29:09;23.83;;;11.50;;
58362;SDS011;54977;51.510;7.522;2022-11-04T20:34:12;22.75;;;11.48;;
58362;SDS011;54977;51.510;7.522;2022-11-04T20:39:16;20.05;;;10.43;;
58362;SDS011;54977;51.510;7.522;2022-11-04T20:44:20;25.50;;;11.43;;
58362;SDS011;54977;51.510;7.522;2022-11-04T20:49:22;26.40;;;12.13;;
58362;SDS011;54977;51.510;7.522;2022-11-04T21:04:29;71.38;;;31.48;;
58362;SDS011;54977;51.510;7.522;2022-11-04T21:09:32;37.50;;;18.75;;
58362;SDS011;54977;51.510;7.522;2022-11-04T21:14:34;41.70;;;20.33;;
58362;SDS011;54977;51.510;7.522;2022-11-04T21:19:36;42.83;;;19.67;;
58362;SDS011;54977;51.510;7.522;2022-11-04T21:24:39;37.70;;;17.67;;
58362;SDS011;54977;51.510;7.522;2022-11-04T21:29:41;32.40;;;13.20;;
58362;SDS011;54977;51.510;7.522;2022-11-04T21:34:43;26.80;;;12.05;;
58362;SDS011;54977;51.510;7.522;2022-11-04T21:39:46;23.83;;;11.52;;
58362;SDS011;54977;51.510;7.522;2022-11-04T21:44:48;26.77;;;12.32;;
58362;SDS011;54977;51.510;7.522;2022-11-04T21:54:53;24.08;;;12.02;;
58362;SDS011;54977;51.510;7.522;2022-11-04T21:59:55;24.92;;;11.73;;
58362;SDS011;54977;51.510;7.522;2022-11-04T22:04:57;25.52;;;12.02;;
58362;SDS011;54977;51.510;7.522;2022-11-04T22:10:00;24.92;;;12.15;;
58362;SDS011;54977;51.510;7.522;2022-11-04T22:15:02;24.85;;;11.30;;
58362;SDS011;54977;51.510;7.522;2022-11-04T22:20:05;26.85;;;11.75;;
58362;SDS011;54977;51.510;7.522;2022-11-04T22:25:08;23.30;;;10.40;;
58362;SDS011;54977;51.510;7.522;2022-11-04T22:30:11;26.92;;;11.18;;
58362;SDS011;54977;51.510;7.522;2022-11-04T22:35:13;21.05;;;10.15;;
58362;SDS011;54977;51.510;7.522;2022-11-04T22:40:17;21.15;;;10.02;;
58362;SDS011;54977;51.510;7.522;2022-11-04T22:45:19;20.80;;;9.45;;
58362;SDS011;54977;51.510;7.522;2022-11-04T22:55:24;16.92;;;8.27;;
58362;SDS011;54977;51.510;7.522;2022-11-04T23:00:26;19.63;;;9.43;;
58362;SDS011;54977;51.510;7.522;2022-11-04T23:05:29;15.75;;;8.50;;
58362;SDS011;54977;51.510;7.522;2022-11-04T23:10:33;18.52;;;8.60;;
58362;SDS011;54977;51.510;7.522;2022-11-04T23:15:52;22.08;;;8.80;;
58362;SDS011;54977;51.510;7.522;2022-11-04T23:21:12;23.55;;;9.07;;
58362;SDS011;54977;51.510;7.522;2022-11-04T23:26:34;18.08;;;8.80;;
58362;SDS011;54977;51.510;7.522;2022-11-04T23:31:36;17.55;;;7.88;;
58362;SDS011;54977;51.510;7.522;2022-11-04T23:36:38;15.55;;;7.22;;
58362;SDS011;54977;51.510;7.522;2022-11-04T23:41:59;17.48;;;7.28;;
58362;SDS011;54977;51.510;7.522;2022-11-04T23:47:16;15.68;;;6.82;;
58362;SDS011;54977;51.510;7.522;2022-11-04T23:52:35;13.68;;;6.13;;
58362;SDS011;54977;51.510;7.522;2022-11-04T23:57:56;20.35;;;7.03;;
